sensor_id;sensor_type;location;lat;lon;timestamp;pressure;altitude;pressure_sealevel;temperature;humidity
52975;BME280;38839;45.186;5.720;2023-03-21T00:01:51;99469.81;;;9.18;70.17
52975;BME280;38839;45.186;5.720;2023-03-21T00:04:17;99471.53;;;9.16;70.47
52975;BME280;38839;45.186;5.720;2023-03-21T00:06:43;99461.13;;;9.13;70.38
52975;BME280;38839;45.186;5.720;2023-03-21T00:09:08;99459.34;;;9.09;70.56
52975;BME280;38839;45.186;5.720;2023-03-21T00:11:33;99464.56;;;9.09;70.42
52975;BME280;38839;45.186;5.720;2023-03-21T00:13:59;99461.03;;;9.05;70.50
52975;BME280;38839;45.186;5.720;2023-03-21T00:16:27;99461.91;;;9.06;70.72
52975;BME280;38839;45.186;5.720;2023-03-21T00:18:55;99465.41;;;9.10;70.46
52975;BME280;38839;45.186;5.720;2023-03-21T00:21:22;99459.31;;;9.06;70.59
52975;BME280;38839;45.186;5.720;2023-03-21T00:23:57;99461.88;;;9.01;70.71
52975;BME280;38839;45.186;5.720;2023-03-21T00:26:23;99458.31;;;8.92;71.03
52975;BME280;38839;45.186;5.720;2023-03-21T00:28:49;99460.03;;;8.90;71.32
52975;BME280;38839;45.186;5.720;2023-03-21T00:31:14;99460.84;;;8.81;71.41
52975;BME280;38839;45.186;5.720;2023-03-21T00:33:40;99457.38;;;8.80;71.57
52975;BME280;38839;45.186;5.720;2023-03-21T00:36:07;99459.97;;;8.80;71.69
52975;BME280;38839;45.186;5.720;2023-03-21T00:38:33;99449.56;;;8.79;71.75
52975;BME280;38839;45.186;5.720;2023-03-21T00:40:59;99452.13;;;8.77;71.78
52975;BME280;38839;45.186;5.720;2023-03-21T00:43:24;99456.50;;;8.78;72.02
52975;BME280;38839;45.186;5.720;2023-03-21T00:45:55;99456.44;;;8.75;72.18
52975;BME280;38839;45.186;5.720;2023-03-21T00:48:21;99450.34;;;8.73;71.98
52975;BME280;38839;45.186;5.720;2023-03-21T00:50:46;99456.47;;;8.74;72.47
52975;BME280;38839;45.186;5.720;2023-03-21T00:53:13;99462.53;;;8.74;72.67
52975;BME280;38839;45.186;5.720;2023-03-21T00:55:39;99459.03;;;8.72;72.65
52975;BME280;38839;45.186;5.720;2023-03-21T00:58:04;99450.31;;;8.67;72.62
52975;BME280;38839;45.186;5.720;2023-03-21T01:00:31;99461.59;;;8.69;72.51
52975;BME280;38839;45.186;5.720;2023-03-21T01:02:58;99457.22;;;8.65;72.68
52975;BME280;38839;45.186;5.720;2023-03-21T01:05:31;99459.84;;;8.66;72.65
52975;BME280;38839;45.186;5.720;2023-03-21T01:08:17;99452.00;;;8.65;72.62
52975;BME280;38839;45.186;5.720;2023-03-21T01:10:46;99451.09;;;8.58;72.72
52975;BME280;38839;45.186;5.720;2023-03-21T01:13:14;99454.56;;;8.59;72.52
52975;BME280;38839;45.186;5.720;2023-03-21T01:15:47;99455.44;;;8.58;72.55
52975;BME280;38839;45.186;5.720;2023-03-21T01:18:15;99452.78;;;8.53;72.92
52975;BME280;38839;45.186;5.720;2023-03-21T01:20:42;99439.69;;;8.44;72.98
52975;BME280;38839;45.186;5.720;2023-03-21T01:23:08;99446.63;;;8.46;73.17
52975;BME280;38839;45.186;5.720;2023-03-21T01:25:34;99452.69;;;8.44;73.10
52975;BME280;38839;45.186;5.720;2023-03-21T01:27:59;99444.88;;;8.42;72.91
52975;BME280;38839;45.186;5.720;2023-03-21T01:30:25;99444.88;;;8.42;73.21
52975;BME280;38839;45.186;5.720;2023-03-21T01:32:51;99434.50;;;8.45;73.08
52975;BME280;38839;45.186;5.720;2023-03-21T01:35:17;99434.50;;;8.45;72.88
52975;BME280;38839;45.186;5.720;2023-03-21T01:37:43;99430.13;;;8.41;72.94
52975;BME280;38839;45.186;5.720;2023-03-21T01:40:16;99422.25;;;8.38;73.29
52975;BME280;38839;45.186;5.720;2023-03-21T01:42:42;99424.94;;;8.41;73.29
52975;BME280;38839;45.186;5.720;2023-03-21T01:48:11;99421.38;;;8.36;73.23
52975;BME280;38839;45.186;5.720;2023-03-21T01:50:37;99411.84;;;8.35;73.16
52975;BME280;38839;45.186;5.720;2023-03-21T01:53:02;99414.44;;;8.35;73.08
52975;BME280;38839;45.186;5.720;2023-03-21T01:55:28;99408.34;;;8.33;73.47
52975;BME280;38839;45.186;5.720;2023-03-21T01:57:55;99401.41;;;8.34;73.53
52975;BME280;38839;45.186;5.720;2023-03-21T02:00:23;99407.47;;;8.34;73.39
52975;BME280;38839;45.186;5.720;2023-03-21T02:02:50;99410.06;;;8.31;73.60
52975;BME280;38839;45.186;5.720;2023-03-21T02:08:07;99403.97;;;8.27;73.86
52975;BME280;38839;45.186;5.720;2023-03-21T02:10:33;99403.09;;;8.30;74.29
52975;BME280;38839;45.186;5.720;2023-03-21T02:13:03;99403.97;;;8.29;74.31
52975;BME280;38839;45.186;5.720;2023-03-21T02:15:39;99403.06;;;8.24;75.72
52975;BME280;38839;45.186;5.720;2023-03-21T02:29:29;99401.31;;;8.23;75.72
52975;BME280;38839;45.186;5.720;2023-03-21T02:31:55;99386.63;;;8.26;75.98
52975;BME280;38839;45.186;5.720;2023-03-21T02:37:04;99382.16;;;8.13;76.92
52975;BME280;38839;45.186;5.720;2023-03-21T02:39:40;99383.03;;;8.15;77.35
52975;BME280;38839;45.186;5.720;2023-03-21T02:42:40;99378.72;;;8.16;77.85
52975;BME280;38839;45.186;5.720;2023-03-21T02:45:16;99375.25;;;8.15;77.86
52975;BME280;38839;45.186;5.720;2023-03-21T02:47:49;99376.94;;;8.12;78.16
52975;BME280;38839;45.186;5.720;2023-03-21T02:52:56;99376.00;;;8.02;79.04
52975;BME280;38839;45.186;5.720;2023-03-21T02:55:27;99372.31;;;7.84;80.21
52975;BME280;38839;45.186;5.720;2023-03-21T02:57:56;99375.72;;;7.79;81.05
52975;BME280;38839;45.186;5.720;2023-03-21T03:00:26;99373.19;;;7.85;80.89
52975;BME280;38839;45.186;5.720;2023-03-21T03:02:52;99373.22;;;7.88;80.39
52975;BME280;38839;45.186;5.720;2023-03-21T03:05:24;99374.13;;;7.90;81.13
52975;BME280;38839;45.186;5.720;2023-03-21T03:08:16;99366.38;;;7.95;80.98
52975;BME280;38839;45.186;5.720;2023-03-21T03:19:03;99361.13;;;7.90;80.29
52975;BME280;38839;45.186;5.720;2023-03-21T03:21:42;99362.00;;;7.91;80.58
52975;BME280;38839;45.186;5.720;2023-03-21T03:24:28;99368.06;;;7.91;80.58
52975;BME280;38839;45.186;5.720;2023-03-21T03:29:25;99372.97;;;7.66;81.97
52975;BME280;38839;45.186;5.720;2023-03-21T03:31:58;99378.81;;;7.50;82.59
52975;BME280;38839;45.186;5.720;2023-03-21T03:34:28;99380.41;;;7.37;83.98
52975;BME280;38839;45.186;5.720;2023-03-21T03:36:59;99377.66;;;7.27;84.01
52975;BME280;38839;45.186;5.720;2023-03-21T03:39:50;99378.53;;;7.27;83.99
52975;BME280;38839;45.186;5.720;2023-03-21T03:42:23;99376.88;;;7.34;83.45
52975;BME280;38839;45.186;5.720;2023-03-21T03:44:50;99378.81;;;7.47;83.65
52975;BME280;38839;45.186;5.720;2023-03-21T03:47:21;99373.66;;;7.52;83.49
52975;BME280;38839;45.186;5.720;2023-03-21T03:52:54;99375.38;;;7.51;82.76
52975;BME280;38839;45.186;5.720;2023-03-21T03:55:22;99382.38;;;7.57;82.62
52975;BME280;38839;45.186;5.720;2023-03-21T03:57:51;99374.53;;;7.52;82.95
52975;BME280;38839;45.186;5.720;2023-03-21T04:00:18;99378.88;;;7.53;82.62
52975;BME280;38839;45.186;5.720;2023-03-21T04:02:44;99378.88;;;7.53;83.31
52975;BME280;38839;45.186;5.720;2023-03-21T04:05:10;99377.97;;;7.51;82.48
52975;BME280;38839;45.186;5.720;2023-03-21T04:07:35;99378.75;;;7.42;82.62
52975;BME280;38839;45.186;5.720;2023-03-21T04:10:01;99378.72;;;7.41;82.72
52975;BME280;38839;45.186;5.720;2023-03-21T04:12:26;99374.28;;;7.34;83.48
52975;BME280;38839;45.186;5.720;2023-03-21T04:14:51;99376.88;;;7.34;83.82
52975;BME280;38839;45.186;5.720;2023-03-21T04:17:17;99379.53;;;7.37;84.01
52975;BME280;38839;45.186;5.720;2023-03-21T04:19:44;99370.84;;;7.35;84.07
52975;BME280;38839;45.186;5.720;2023-03-21T04:22:11;99378.63;;;7.35;84.40
52975;BME280;38839;45.186;5.720;2023-03-21T04:24:37;99392.44;;;7.34;84.93
52975;BME280;38839;45.186;5.720;2023-03-21T04:27:03;99383.78;;;7.30;84.46
52975;BME280;38839;45.186;5.720;2023-03-21T04:29:30;99393.25;;;7.30;84.78
52975;BME280;38839;45.186;5.720;2023-03-21T04:31:55;99388.88;;;7.24;84.40
52975;BME280;38839;45.186;5.720;2023-03-21T04:34:21;99384.56;;;7.24;84.71
52975;BME280;38839;45.186;5.720;2023-03-21T04:36:49;99391.53;;;7.29;84.64
52975;BME280;38839;45.186;5.720;2023-03-21T04:39:15;99390.69;;;7.31;84.66
52975;BME280;38839;45.186;5.720;2023-03-21T04:41:43;99383.81;;;7.33;84.41
52975;BME280;38839;45.186;5.720;2023-03-21T04:44:09;99386.41;;;7.33;84.61
52975;BME280;38839;45.186;5.720;2023-03-21T04:46:36;99392.44;;;7.34;84.63
52975;BME280;38839;45.186;5.720;2023-03-21T04:49:02;99392.47;;;7.35;84.37
52975;BME280;38839;45.186;5.720;2023-03-21T04:51:27;99392.44;;;7.34;84.67
52975;BME280;38839;45.186;5.720;2023-03-21T04:53:53;99392.50;;;7.37;84.61
52975;BME280;38839;45.186;5.720;2023-03-21T04:56:23;99389.03;;;7.36;84.44
52975;BME280;38839;45.186;5.720;2023-03-21T04:58:55;99389.84;;;7.34;84.50
52975;BME280;38839;45.186;5.720;2023-03-21T05:01:21;99380.38;;;7.34;84.43
52975;BME280;38839;45.186;5.720;2023-03-21T05:03:46;99389.03;;;7.35;84.50
52975;BME280;38839;45.186;5.720;2023-03-21T05:06:12;99388.09;;;7.31;84.19
52975;BME280;38839;45.186;5.720;2023-03-21T05:08:37;99389.78;;;7.28;84.01
52975;BME280;38839;45.186;5.720;2023-03-21T05:11:03;99395.88;;;7.31;83.76
52975;BME280;38839;45.186;5.720;2023-03-21T05:13:29;99397.63;;;7.31;83.22
52975;BME280;38839;45.186;5.720;2023-03-21T05:15:54;99393.28;;;7.31;82.87
52975;BME280;38839;45.186;5.720;2023-03-21T05:18:20;99398.41;;;7.27;82.15
52975;BME280;38839;45.186;5.720;2023-03-21T05:20:50;99396.72;;;7.29;81.49
52975;BME280;38839;45.186;5.720;2023-03-21T05:23:20;99400.13;;;7.24;80.79
52975;BME280;38839;45.186;5.720;2023-03-21T05:25:46;99394.97;;;7.28;81.01
52975;BME280;38839;45.186;5.720;2023-03-21T05:28:11;99406.28;;;7.33;80.88
52975;BME280;38839;45.186;5.720;2023-03-21T05:30:36;99404.53;;;7.30;80.89
52975;BME280;38839;45.186;5.720;2023-03-21T05:33:02;99407.97;;;7.29;81.00
52975;BME280;38839;45.186;5.720;2023-03-21T05:35:28;99414.03;;;7.30;80.70
52975;BME280;38839;45.186;5.720;2023-03-21T05:37:54;99404.53;;;7.32;80.55
52975;BME280;38839;45.186;5.720;2023-03-21T05:40:19;99406.28;;;7.33;80.74
52975;BME280;38839;45.186;5.720;2023-03-21T05:42:46;99401.94;;;7.32;80.41
52975;BME280;38839;45.186;5.720;2023-03-21T05:45:12;99409.81;;;7.36;80.09
52975;BME280;38839;45.186;5.720;2023-03-21T05:47:38;99410.63;;;7.34;79.61
52975;BME280;38839;45.186;5.720;2023-03-21T05:50:04;99415.91;;;7.41;79.27
52975;BME280;38839;45.186;5.720;2023-03-21T05:52:29;99411.69;;;7.48;79.25
52975;BME280;38839;45.186;5.720;2023-03-21T05:54:55;99415.16;;;7.50;78.61
52975;BME280;38839;45.186;5.720;2023-03-21T05:57:20;99423.84;;;7.52;77.87
52975;BME280;38839;45.186;5.720;2023-03-21T05:59:46;99424.66;;;7.47;77.24
52975;BME280;38839;45.186;5.720;2023-03-21T06:02:12;99425.47;;;7.42;77.10
52975;BME280;38839;45.186;5.720;2023-03-21T06:04:37;99428.06;;;7.42;77.14
52975;BME280;38839;45.186;5.720;2023-03-21T06:07:03;99431.59;;;7.48;76.77
52975;BME280;38839;45.186;5.720;2023-03-21T06:09:28;99428.19;;;7.52;76.60
52975;BME280;38839;45.186;5.720;2023-03-21T06:11:55;99432.47;;;7.50;76.04
52975;BME280;38839;45.186;5.720;2023-03-21T06:14:21;99435.19;;;7.57;75.84
52975;BME280;38839;45.186;5.720;2023-03-21T06:16:47;99428.19;;;7.52;75.71
52975;BME280;38839;45.186;5.720;2023-03-21T06:19:13;99433.44;;;7.56;75.37
52975;BME280;38839;45.186;5.720;2023-03-21T06:21:38;99432.72;;;7.68;75.15
52975;BME280;38839;45.186;5.720;2023-03-21T06:24:03;99440.63;;;7.76;75.01
52975;BME280;38839;45.186;5.720;2023-03-21T06:26:29;99442.31;;;7.74;75.27
52975;BME280;38839;45.186;5.720;2023-03-21T06:28:54;99432.88;;;7.80;75.47
52975;BME280;38839;45.186;5.720;2023-03-21T06:31:20;99441.47;;;7.76;76.30
52975;BME280;38839;45.186;5.720;2023-03-21T06:33:47;99437.22;;;7.83;76.90
52975;BME280;38839;45.186;5.720;2023-03-21T06:36:13;99439.00;;;7.85;77.64
52975;BME280;38839;45.186;5.720;2023-03-21T06:38:38;99438.25;;;7.94;78.06
52975;BME280;38839;45.186;5.720;2023-03-21T06:41:04;99445.25;;;8.01;78.35
52975;BME280;38839;45.186;5.720;2023-03-21T06:43:30;99442.72;;;8.07;77.89
52975;BME280;38839;45.186;5.720;2023-03-21T06:45:56;99440.13;;;8.07;78.19
52975;BME280;38839;45.186;5.720;2023-03-21T06:48:22;99439.41;;;8.21;77.60
52975;BME280;38839;45.186;5.720;2023-03-21T06:50:48;99435.13;;;8.24;77.90
52975;BME280;38839;45.186;5.720;2023-03-21T06:53:15;99441.28;;;8.34;77.53
52975;BME280;38839;45.186;5.720;2023-03-21T06:55:41;99446.53;;;8.37;77.40
52975;BME280;38839;45.186;5.720;2023-03-21T06:58:06;99449.13;;;8.40;77.65
52975;BME280;38839;45.186;5.720;2023-03-21T07:00:31;99452.75;;;8.50;77.18
52975;BME280;38839;45.186;5.720;2023-03-21T07:02:57;99443.22;;;8.51;76.93
52975;BME280;38839;45.186;5.720;2023-03-21T07:05:22;99445.84;;;8.54;76.64
52975;BME280;38839;45.186;5.720;2023-03-21T07:07:48;99438.06;;;8.57;76.78
52975;BME280;38839;45.186;5.720;2023-03-21T07:10:14;99436.47;;;8.68;76.53
52975;BME280;38839;45.186;5.720;2023-03-21T07:12:39;99439.94;;;8.70;76.22
52975;BME280;38839;45.186;5.720;2023-03-21T07:15:06;99436.63;;;8.86;76.22
52975;BME280;38839;45.186;5.720;2023-03-21T07:17:31;99436.66;;;8.96;75.83
52975;BME280;38839;45.186;5.720;2023-03-21T07:19:57;99435.81;;;8.95;75.94
52975;BME280;38839;45.186;5.720;2023-03-21T07:22:23;99433.22;;;9.00;75.44
52975;BME280;38839;45.186;5.720;2023-03-21T07:24:48;99436.81;;;9.11;75.26
52975;BME280;38839;45.186;5.720;2023-03-21T07:27:15;99431.66;;;9.22;74.89
52975;BME280;38839;45.186;5.720;2023-03-21T07:29:40;99428.28;;;9.34;74.50
52975;BME280;38839;45.186;5.720;2023-03-21T07:32:06;99419.59;;;9.35;74.46
52975;BME280;38839;45.186;5.720;2023-03-21T07:34:31;99419.59;;;9.35;73.88
52975;BME280;38839;45.186;5.720;2023-03-21T07:36:58;99423.13;;;9.41;73.96
52975;BME280;38839;45.186;5.720;2023-03-21T07:39:24;99425.69;;;9.35;74.07
52975;BME280;38839;45.186;5.720;2023-03-21T07:41:50;99428.19;;;9.21;74.42
52975;BME280;38839;45.186;5.720;2023-03-21T07:44:15;99418.75;;;9.36;74.43
52975;BME280;38839;45.186;5.720;2023-03-21T07:46:40;99420.56;;;9.52;73.78
52975;BME280;38839;45.186;5.720;2023-03-21T07:49:06;99421.50;;;9.66;73.26
52975;BME280;38839;45.186;5.720;2023-03-21T07:51:33;99419.84;;;9.81;72.85
52975;BME280;38839;45.186;5.720;2023-03-21T07:54:00;99421.63;;;9.94;72.34
52975;BME280;38839;45.186;5.720;2023-03-21T07:56:26;99424.28;;;10.13;71.85
52975;BME280;38839;45.186;5.720;2023-03-21T07:58:54;99423.44;;;10.14;71.55
52975;BME280;38839;45.186;5.720;2023-03-21T08:01:19;99425.13;;;10.08;71.33
52975;BME280;38839;45.186;5.720;2023-03-21T08:03:46;99423.44;;;10.14;71.12
52975;BME280;38839;45.186;5.720;2023-03-21T08:06:12;99418.22;;;10.17;71.01
52975;BME280;38839;45.186;5.720;2023-03-21T08:08:38;99423.47;;;10.29;70.68
52975;BME280;38839;45.186;5.720;2023-03-21T08:11:04;99423.53;;;10.34;70.05
52975;BME280;38839;45.186;5.720;2023-03-21T08:13:29;99423.53;;;10.43;69.77
52975;BME280;38839;45.186;5.720;2023-03-21T08:15:55;99417.44;;;10.45;69.70
52975;BME280;38839;45.186;5.720;2023-03-21T08:18:20;99413.09;;;10.54;69.05
52975;BME280;38839;45.186;5.720;2023-03-21T08:20:54;99420.97;;;10.64;68.78
52975;BME280;38839;45.186;5.720;2023-03-21T08:23:19;99415.75;;;10.74;68.39
52975;BME280;38839;45.186;5.720;2023-03-21T08:25:45;99414.88;;;10.85;68.07
52975;BME280;38839;45.186;5.720;2023-03-21T08:28:11;99407.88;;;11.09;67.41
52975;BME280;38839;45.186;5.720;2023-03-21T08:30:37;99417.41;;;11.38;66.61
52975;BME280;38839;45.186;5.720;2023-03-21T08:33:03;99412.19;;;11.39;66.17
52975;BME280;38839;45.186;5.720;2023-03-21T08:35:29;99412.06;;;11.82;65.11
52975;BME280;38839;45.186;5.720;2023-03-21T08:37:55;99417.31;;;11.78;64.90
52975;BME280;38839;45.186;5.720;2023-03-21T08:40:21;99409.28;;;12.18;64.19
52975;BME280;38839;45.186;5.720;2023-03-21T08:42:47;99407.47;;;12.37;63.50
52975;BME280;38839;45.186;5.720;2023-03-21T08:45:14;99411.72;;;12.53;63.06
52975;BME280;38839;45.186;5.720;2023-03-21T08:47:40;99403.75;;;12.67;62.67
52975;BME280;38839;45.186;5.720;2023-03-21T08:50:07;99406.09;;;12.99;61.87
52975;BME280;38839;45.186;5.720;2023-03-21T08:52:33;99405.53;;;12.59;62.56
52975;BME280;38839;45.186;5.720;2023-03-21T08:54:58;99400.00;;;12.96;62.05
52975;BME280;38839;45.186;5.720;2023-03-21T08:57:26;99399.97;;;13.02;61.44
52975;BME280;38839;45.186;5.720;2023-03-21T08:59:51;99401.53;;;13.23;60.89
52975;BME280;38839;45.186;5.720;2023-03-21T09:02:17;99399.78;;;13.23;60.82
52975;BME280;38839;45.186;5.720;2023-03-21T09:04:43;99398.69;;;13.44;60.23
52975;BME280;38839;45.186;5.720;2023-03-21T09:07:09;99397.72;;;13.53;60.10
52975;BME280;38839;45.186;5.720;2023-03-21T09:09:37;99395.03;;;13.62;59.66
52975;BME280;38839;45.186;5.720;2023-03-21T09:12:02;99390.66;;;13.61;59.69
52975;BME280;38839;45.186;5.720;2023-03-21T09:14:28;99391.25;;;13.86;57.74
52975;BME280;38839;45.186;5.720;2023-03-21T09:16:53;99394.47;;;14.05;57.60
52975;BME280;38839;45.186;5.720;2023-03-21T09:19:19;99398.69;;;14.17;57.57
52975;BME280;38839;45.186;5.720;2023-03-21T09:21:44;99390.50;;;14.40;56.80
52975;BME280;38839;45.186;5.720;2023-03-21T09:24:10;99386.59;;;14.05;57.05
52975;BME280;38839;45.186;5.720;2023-03-21T09:26:37;99387.63;;;13.95;57.33
52975;BME280;38839;45.186;5.720;2023-03-21T09:29:02;99384.75;;;14.14;57.50
52975;BME280;38839;45.186;5.720;2023-03-21T09:31:30;99388.41;;;14.00;56.60
52975;BME280;38839;45.186;5.720;2023-03-21T09:33:56;99385.53;;;14.20;56.72
52975;BME280;38839;45.186;5.720;2023-03-21T09:36:23;99379.19;;;14.35;56.32
52975;BME280;38839;45.186;5.720;2023-03-21T09:38:49;99376.56;;;14.35;55.60
52975;BME280;38839;45.186;5.720;2023-03-21T09:44:34;99383.09;;;14.06;56.25
52975;BME280;38839;45.186;5.720;2023-03-21T09:47:19;99375.47;;;13.88;55.89
52975;BME280;38839;45.186;5.720;2023-03-21T09:50:12;99372.22;;;13.67;56.40
52975;BME280;38839;45.186;5.720;2023-03-21T09:52:43;99371.22;;;13.78;56.92
52975;BME280;38839;45.186;5.720;2023-03-21T09:55:16;99371.13;;;13.87;56.64
52975;BME280;38839;45.186;5.720;2023-03-21T09:57:44;99370.78;;;14.12;55.72
52975;BME280;38839;45.186;5.720;2023-03-21T10:00:15;99365.81;;;13.92;56.02
52975;BME280;38839;45.186;5.720;2023-03-21T10:02:48;99364.03;;;13.92;56.02
52975;BME280;38839;45.186;5.720;2023-03-21T10:05:23;99346.09;;;14.25;55.17
52975;BME280;38839;45.186;5.720;2023-03-21T10:10:24;99338.47;;;14.06;54.81
52975;BME280;38839;45.186;5.720;2023-03-21T10:12:53;99352.22;;;14.25;54.72
52975;BME280;38839;45.186;5.720;2023-03-21T10:15:20;99350.22;;;14.41;54.30
52975;BME280;38839;45.186;5.720;2023-03-21T10:17:56;99337.16;;;14.38;53.47
52975;BME280;38839;45.186;5.720;2023-03-21T10:20:25;99334.66;;;13.68;54.57
52975;BME280;38839;45.186;5.720;2023-03-21T10:22:53;99331.31;;;13.54;56.03
52975;BME280;38839;45.186;5.720;2023-03-21T10:25:21;99330.56;;;13.44;56.25
52975;BME280;38839;45.186;5.720;2023-03-21T10:27:49;99320.13;;;13.41;56.17
52975;BME280;38839;45.186;5.720;2023-03-21T10:33:13;99322.69;;;13.46;56.03
52975;BME280;38839;45.186;5.720;2023-03-21T10:35:40;99311.97;;;13.64;55.84
52975;BME280;38839;45.186;5.720;2023-03-21T10:38:14;99321.06;;;14.02;54.76
52975;BME280;38839;45.186;5.720;2023-03-21T10:40:40;99314.69;;;14.19;54.31
52975;BME280;38839;45.186;5.720;2023-03-21T10:45:54;99301.22;;;14.42;53.86
52975;BME280;38839;45.186;5.720;2023-03-21T10:48:20;99294.53;;;14.22;54.32
52975;BME280;38839;45.186;5.720;2023-03-21T10:50:48;99298.00;;;14.23;54.66
52975;BME280;38839;45.186;5.720;2023-03-21T10:53:28;99295.47;;;14.17;54.57
52975;BME280;38839;45.186;5.720;2023-03-21T10:55:58;99293.56;;;14.28;53.96
52975;BME280;38839;45.186;5.720;2023-03-21T10:58:26;99287.41;;;14.29;53.58
52975;BME280;38839;45.186;5.720;2023-03-21T11:00:55;99295.09;;;14.41;53.79
52975;BME280;38839;45.186;5.720;2023-03-21T11:03:27;99294.81;;;14.60;52.44
52975;BME280;38839;45.186;5.720;2023-03-21T11:06:04;99288.47;;;14.73;52.14
52975;BME280;38839;45.186;5.720;2023-03-21T11:08:37;99287.53;;;14.76;51.99
52975;BME280;38839;45.186;5.720;2023-03-21T11:11:06;99280.25;;;14.92;51.44
52975;BME280;38839;45.186;5.720;2023-03-21T11:13:42;99277.78;;;14.82;51.24
52975;BME280;38839;45.186;5.720;2023-03-21T11:16:09;99270.47;;;15.00;51.46
52975;BME280;38839;45.186;5.720;2023-03-21T11:18:41;99268.56;;;15.08;51.23
52975;BME280;38839;45.186;5.720;2023-03-21T11:21:09;99265.84;;;15.11;51.06
52975;BME280;38839;45.186;5.720;2023-03-21T11:23:40;99259.38;;;15.29;50.79
52975;BME280;38839;45.186;5.720;2023-03-21T11:26:10;99265.47;;;15.29;50.48
52975;BME280;38839;45.186;5.720;2023-03-21T11:28:38;99259.66;;;15.57;50.23
52975;BME280;38839;45.186;5.720;2023-03-21T11:31:05;99260.25;;;15.70;49.58
52975;BME280;38839;45.186;5.720;2023-03-21T11:33:59;99249.41;;;15.85;48.68
52975;BME280;38839;45.186;5.720;2023-03-21T11:36:32;99251.00;;;15.93;48.53
52975;BME280;38839;45.186;5.720;2023-03-21T11:39:11;99235.22;;;15.93;47.84
52975;BME280;38839;45.186;5.720;2023-03-21T11:41:39;99233.25;;;16.01;47.79
52975;BME280;38839;45.186;5.720;2023-03-21T11:44:24;99224.34;;;16.08;47.90
52975;BME280;38839;45.186;5.720;2023-03-21T11:46:51;99221.34;;;16.22;47.39
52975;BME280;38839;45.186;5.720;2023-03-21T11:49:16;99212.47;;;16.26;47.26
52975;BME280;38839;45.186;5.720;2023-03-21T11:51:53;99207.44;;;16.17;47.10
52975;BME280;38839;45.186;5.720;2023-03-21T11:57:24;99208.81;;;16.32;46.63
52975;BME280;38839;45.186;5.720;2023-03-21T12:05:28;99185.50;;;16.50;44.60
52975;BME280;38839;45.186;5.720;2023-03-21T12:13:27;99176.19;;;16.70;44.03
52975;BME280;38839;45.186;5.720;2023-03-21T12:21:50;99157.09;;;16.62;45.65
52975;BME280;38839;45.186;5.720;2023-03-21T12:24:35;99139.50;;;16.64;46.05
52975;BME280;38839;45.186;5.720;2023-03-21T12:29:47;99121.28;;;16.87;45.93
52975;BME280;38839;45.186;5.720;2023-03-21T12:45:45;99099.19;;;17.49;44.35
52975;BME280;38839;45.186;5.720;2023-03-21T12:48:19;99105.19;;;17.53;44.17
52975;BME280;38839;45.186;5.720;2023-03-21T12:50:47;99097.91;;;17.61;43.15
52975;BME280;38839;45.186;5.720;2023-03-21T12:53:37;99091.53;;;17.68;42.07
52975;BME280;38839;45.186;5.720;2023-03-21T12:56:08;99085.66;;;17.87;41.97
52975;BME280;38839;45.186;5.720;2023-03-21T12:58:51;99078.94;;;18.03;40.40
52975;BME280;38839;45.186;5.720;2023-03-21T13:01:18;99093.94;;;18.03;40.66
52975;BME280;38839;45.186;5.720;2023-03-21T13:04:07;99076.25;;;18.05;40.06
52975;BME280;38839;45.186;5.720;2023-03-21T13:06:37;99085.50;;;18.17;39.51
52975;BME280;38839;45.186;5.720;2023-03-21T13:09:36;99060.25;;;18.09;38.07
52975;BME280;38839;45.186;5.720;2023-03-21T13:12:10;99066.00;;;18.21;38.08
52975;BME280;38839;45.186;5.720;2023-03-21T13:15:06;99064.31;;;18.18;36.77
52975;BME280;38839;45.186;5.720;2023-03-21T13:17:44;99057.16;;;18.22;36.50
52975;BME280;38839;45.186;5.720;2023-03-21T13:20:31;99061.47;;;18.24;36.71
52975;BME280;38839;45.186;5.720;2023-03-21T13:22:59;99052.47;;;18.30;36.80
52975;BME280;38839;45.186;5.720;2023-03-21T13:25:25;99048.00;;;18.32;37.26
52975;BME280;38839;45.186;5.720;2023-03-21T13:27:59;99047.88;;;18.35;37.25
52975;BME280;38839;45.186;5.720;2023-03-21T13:30:27;99042.66;;;18.34;37.34
52975;BME280;38839;45.186;5.720;2023-03-21T13:33:10;99038.81;;;18.42;37.00
52975;BME280;38839;45.186;5.720;2023-03-21T13:35:38;99035.16;;;18.46;37.37
52975;BME280;38839;45.186;5.720;2023-03-21T13:38:13;99039.16;;;18.57;37.14
52975;BME280;38839;45.186;5.720;2023-03-21T13:40:44;99036.28;;;18.63;37.56
52975;BME280;38839;45.186;5.720;2023-03-21T13:51:55;99038.06;;;18.39;38.27
52975;BME280;38839;45.186;5.720;2023-03-21T13:57:35;99021.31;;;18.15;38.55
52975;BME280;38839;45.186;5.720;2023-03-21T14:00:19;99022.03;;;18.20;38.81
52975;BME280;38839;45.186;5.720;2023-03-21T14:03:06;99023.13;;;18.14;38.84
52975;BME280;38839;45.186;5.720;2023-03-21T14:05:33;99027.50;;;18.15;39.37
52975;BME280;38839;45.186;5.720;2023-03-21T14:08:04;99012.47;;;18.17;39.24
52975;BME280;38839;45.186;5.720;2023-03-21T14:13:05;99014.91;;;18.22;38.96
52975;BME280;38839;45.186;5.720;2023-03-21T14:18:04;99015.69;;;18.25;38.90
52975;BME280;38839;45.186;5.720;2023-03-21T14:20:35;99008.25;;;18.35;38.73
52975;BME280;38839;45.186;5.720;2023-03-21T14:23:07;99010.00;;;18.36;38.97
52975;BME280;38839;45.186;5.720;2023-03-21T14:25:37;99016.06;;;18.38;38.57
52975;BME280;38839;45.186;5.720;2023-03-21T14:28:06;99013.50;;;18.37;38.82
52975;BME280;38839;45.186;5.720;2023-03-21T14:30:36;99020.16;;;18.47;38.44
52975;BME280;38839;45.186;5.720;2023-03-21T14:33:26;99009.47;;;18.50;37.41
52975;BME280;38839;45.186;5.720;2023-03-21T14:35:56;99000.38;;;18.57;37.74
52975;BME280;38839;45.186;5.720;2023-03-21T14:38:25;99009.59;;;18.70;37.39
52975;BME280;38839;45.186;5.720;2023-03-21T14:40:52;99002.75;;;18.65;37.10
52975;BME280;38839;45.186;5.720;2023-03-21T14:43:19;99008.03;;;18.65;37.61
52975;BME280;38839;45.186;5.720;2023-03-21T14:45:53;99009.75;;;18.66;37.71
52975;BME280;38839;45.186;5.720;2023-03-21T14:48:21;99003.88;;;18.58;37.84
52975;BME280;38839;45.186;5.720;2023-03-21T14:50:54;99011.94;;;18.55;37.79
52975;BME280;38839;45.186;5.720;2023-03-21T14:53:27;99002.00;;;18.61;37.97
52975;BME280;38839;45.186;5.720;2023-03-21T14:55:58;98996.19;;;18.52;38.11